KCNM

Cavern City Air Terminal

Airport
ICAO code
KCNM
Summary
ICAO Region
NAM
ICAO Territory
Location

Carlsbad, New Mexico,

Coordinates
32° 20' 15" N , 104° 15' 48" W
KCC
BSk
Airport LOS
Parallel Runway Operation
Airport RE
Hot and High Operations
Airport WX
Tornado
Metar
Observation
KCNM 081953Z AUTO VRB03KT 10SM CLR 33/13 A3009 RMK AO2 SLP123 T03330128
Station
Carlsbad, Cavern City Air Terminal Airport
Date/Time
2022-08-08 19:53:00
Wind speed
03 kts
Lowest cloud amount
n/a
Temperature
33.3°C
Dew point
12.8°C
Humidity
28%
Weather condition
n/a

Description

Cavern City Air Terminal is a public use airport located 9 km southwest of the central business district of Carlsbad, a city in Eddy County, New Mexico.

Climatology

A semi-arid climate (Köppen climate classification BSk), with generally cold, dry winters and hot summers. Late spring and early summer is on average the wettest period of the year.

Airport map

Aerial View

SKYbrary Partners:

Safety knowledge contributed by: